createdAt,value
2022-11-09T06:35:14.662Z,12.10
2022-11-09T06:40:18.340Z,12.10
2022-11-09T06:45:20.194Z,12.10
2022-11-09T06:50:22.063Z,12.10
2022-11-09T06:55:23.893Z,12.00
2022-11-09T07:00:27.262Z,12.10
2022-11-09T07:05:29.157Z,12.10
2022-11-09T07:10:30.948Z,12.10
2022-11-09T07:15:33.693Z,12.00
2022-11-09T07:20:35.501Z,12.10
2022-11-09T07:25:37.347Z,12.10
2022-11-09T07:30:39.172Z,12.10
2022-11-09T07:35:41.832Z,12.10
2022-11-09T07:40:44.355Z,12.10
2022-11-09T07:45:46.237Z,12.10
2022-11-09T07:50:48.201Z,12.10
2022-11-09T07:55:59.931Z,12.20
2022-11-09T08:01:01.862Z,12.20
2022-11-09T08:06:03.895Z,12.20
2022-11-09T08:11:05.932Z,12.30
2022-11-09T08:16:08.048Z,12.30
2022-11-09T08:21:09.998Z,12.40
2022-11-09T08:26:12.523Z,12.40
2022-11-09T08:31:14.384Z,12.40
2022-11-09T08:36:17.716Z,12.50
2022-11-09T08:41:19.589Z,12.50
2022-11-09T08:46:21.420Z,12.50
2022-11-09T08:51:23.215Z,12.60
2022-11-09T08:56:25.193Z,12.60
2022-11-09T09:01:27.079Z,12.70
2022-11-09T09:06:31.303Z,12.70
2022-11-09T09:11:33.393Z,12.80
2022-11-09T09:16:35.303Z,12.80
2022-11-09T09:21:37.154Z,12.90
2022-11-09T09:26:39.238Z,12.90
2022-11-09T09:31:41.521Z,13.00
2022-11-09T09:36:47.686Z,13.00
2022-11-09T09:42:01.263Z,13.00
2022-11-09T09:47:15.481Z,13.10
2022-11-09T09:52:20.115Z,13.20
2022-11-09T09:57:23.066Z,13.20
2022-11-09T10:02:27.472Z,13.20
2022-11-09T10:07:38.483Z,13.20
2022-11-09T10:12:59.167Z,13.30
2022-11-09T10:18:30.041Z,13.40
2022-11-09T10:23:48.204Z,13.50
2022-11-09T10:29:15.207Z,13.50
2022-11-09T10:34:30.273Z,13.50
2022-11-09T10:39:41.111Z,13.60
2022-11-09T10:44:42.953Z,13.60
2022-11-09T10:49:45.651Z,13.60
2022-11-09T10:54:47.426Z,13.60
2022-11-09T10:59:49.959Z,13.60
2022-11-09T11:05:15.159Z,13.60
2022-11-09T11:10:17.106Z,13.70
2022-11-09T11:15:41.365Z,13.70
2022-11-09T11:20:43.156Z,13.70
2022-11-09T11:25:53.890Z,13.70
2022-11-09T11:30:56.298Z,13.70
2022-11-09T11:36:26.152Z,13.80
2022-11-09T11:41:57.003Z,13.80
2022-11-09T11:47:03.231Z,13.60
2022-11-09T11:52:20.262Z,13.50
2022-11-09T11:57:34.238Z,13.50
2022-11-09T12:02:44.233Z,13.40
2022-11-09T12:07:56.961Z,13.40
2022-11-09T12:13:15.723Z,13.40
2022-11-09T12:18:37.809Z,13.40
2022-11-09T12:23:52.138Z,13.50
2022-11-09T12:29:08.009Z,13.50
2022-11-09T12:34:23.713Z,13.50
2022-11-09T12:39:31.582Z,13.60
2022-11-09T12:45:27.409Z,13.60
2022-11-09T12:50:29.696Z,13.60
2022-11-09T12:56:02.856Z,13.70
2022-11-09T13:01:07.060Z,13.70
2022-11-09T13:06:42.781Z,13.80
2022-11-09T13:11:56.327Z,13.90
2022-11-09T13:17:06.415Z,14.00
2022-11-09T13:22:16.890Z,14.00
2022-11-09T13:27:33.812Z,14.00
2022-11-09T13:32:35.687Z,14.00
2022-11-09T13:37:44.892Z,14.00
2022-11-09T13:42:57.350Z,14.10
2022-11-09T13:47:59.351Z,14.10
2022-11-09T13:53:02.311Z,14.10
2022-11-09T13:58:14.359Z,14.20
2022-11-09T14:03:19.356Z,14.20
2022-11-09T14:08:41.015Z,14.20
2022-11-09T14:13:52.157Z,14.20
2022-11-09T14:19:21.066Z,14.30
2022-11-09T14:24:32.579Z,14.20
2022-11-09T14:29:35.455Z,14.20
2022-11-09T14:34:37.321Z,14.20
2022-11-09T14:39:39.105Z,14.10
2022-11-09T14:44:43.921Z,14.20
2022-11-09T14:49:46.136Z,14.10
2022-11-09T14:54:48.488Z,14.10
2022-11-09T14:59:50.947Z,14.00
2022-11-09T15:05:01.429Z,14.00
2022-11-09T15:10:11.355Z,14.00
2022-11-09T15:15:20.123Z,14.00
2022-11-09T15:20:21.868Z,14.00
2022-11-09T15:25:30.411Z,13.90
2022-11-09T15:30:35.658Z,13.90
2022-11-09T15:35:48.687Z,13.90
2022-11-09T15:40:50.491Z,13.90
2022-11-09T15:45:52.955Z,13.90
2022-11-09T15:50:55.442Z,13.80
2022-11-09T15:55:57.210Z,13.70
2022-11-09T16:00:59.217Z,13.70
2022-11-09T16:06:01.047Z,13.60
2022-11-09T16:11:05.137Z,13.60
2022-11-09T16:16:08.822Z,13.50
2022-11-09T16:21:12.479Z,13.50
2022-11-09T16:26:16.602Z,13.50
2022-11-09T16:31:25.343Z,13.40
2022-11-09T16:36:38.880Z,13.40
2022-11-09T16:41:45.111Z,13.40
2022-11-09T16:46:47.878Z,13.30
2022-11-09T16:51:49.655Z,13.30
2022-11-09T16:56:53.575Z,13.20
2022-11-09T17:01:58.053Z,13.10
2022-11-09T17:07:00.271Z,13.10
2022-11-09T17:12:02.121Z,13.00
2022-11-09T17:17:04.052Z,13.00
2022-11-09T17:22:05.882Z,12.90
2022-11-09T17:27:09.583Z,12.90
2022-11-09T17:32:11.625Z,12.90
2022-11-09T17:37:13.405Z,12.90
2022-11-09T17:42:15.256Z,12.80
2022-11-09T17:47:17.040Z,12.80
2022-11-09T17:52:18.817Z,12.80
